Time;durP1;ratioP1;P1;durP2;ratioP2;P2;SDS_P1;SDS_P2;PMS_P1;PMS_P2;Temp;Humidity;BMP_temperature;BMP_pressure;BME280_temperature;BME280_humidity;BME280_pressure;Samples;Min_cycle;Max_cycle;Signal;HPM_P1;HPM_P2
2023/08/05 00:00:01;;;;;;;47.15;43.20;;;17.90;99.90;;;;;;4963019;28;20054;-61
2023/08/05 00:02:26;;;;;;;47.33;43.05;;;17.80;99.90;;;;;;4964876;28;20042;-61
2023/08/05 00:04:53;;;;;;;45.55;41.65;;;17.70;99.90;;;;;;4961817;28;20101;-60
2023/08/05 00:07:18;;;;;;;45.97;42.17;;;17.70;99.90;;;;;;4960288;28;20456;-60
2023/08/05 00:09:44;;;;;;;46.88;42.67;;;18.00;99.90;;;;;;4958391;28;20058;-62
2023/08/05 00:12:10;;;;;;;48.35;44.25;;;17.50;99.90;;;;;;4963210;28;20505;-60
2023/08/05 00:14:35;;;;;;;50.40;45.88;;;17.40;99.90;;;;;;4964958;28;20505;-61
2023/08/05 00:17:01;;;;;;;51.05;46.65;;;17.30;99.90;;;;;;4975767;28;20086;-62
2023/08/05 00:19:26;;;;;;;50.42;45.88;;;17.40;99.90;;;;;;4968584;28;20046;-60
2023/08/05 00:21:52;;;;;;;51.40;46.85;;;17.40;99.90;;;;;;4961550;28;20046;-63
2023/08/05 00:24:18;;;;;;;49.45;44.72;;;17.30;99.90;;;;;;4961400;28;20042;-60
2023/08/05 00:26:43;;;;;;;53.25;47.95;;;17.40;99.90;;;;;;4969374;28;20046;-62
2023/08/05 00:29:09;;;;;;;52.80;47.70;;;17.30;99.90;;;;;;4963434;28;20039;-61
2023/08/05 00:31:35;;;;;;;53.67;48.85;;;17.70;99.90;;;;;;4969936;28;20125;-61
2023/08/05 00:34:00;;;;;;;50.88;46.45;;;17.50;99.90;;;;;;4964862;28;20047;-61
2023/08/05 00:36:26;;;;;;;54.00;48.85;;;17.60;99.90;;;;;;4965087;28;20442;-60
2023/08/05 00:38:51;;;;;;;51.85;47.20;;;17.70;99.90;;;;;;4962187;28;20059;-60
2023/08/05 00:41:17;;;;;;;51.47;46.38;;;17.50;99.90;;;;;;4962999;28;20509;-61
2023/08/05 00:43:43;;;;;;;51.42;46.92;;;17.40;99.90;;;;;;4957843;28;20114;-60
2023/08/05 00:46:09;;;;;;;52.28;47.40;;;17.40;99.90;;;;;;4968810;28;20463;-60
2023/08/05 00:48:35;;;;;;;53.30;48.22;;;17.50;99.90;;;;;;4957839;28;20051;-60
2023/08/05 00:51:01;;;;;;;54.72;50.00;;;17.50;99.90;;;;;;4958211;28;20106;-61
2023/08/05 00:53:27;;;;;;;53.20;47.55;;;17.40;99.90;;;;;;4964584;28;20465;-61
2023/08/05 00:55:53;;;;;;;53.53;48.65;;;17.70;99.90;;;;;;4963964;28;20089;-61
2023/08/05 00:58:23;;;;;;;52.65;47.97;;;17.60;99.90;;;;;;4964303;28;20051;-60
2023/08/05 01:00:50;;;;;;;55.22;50.03;;;17.60;99.90;;;;;;4967165;28;20508;-60
2023/08/05 01:03:16;;;;;;;54.63;49.72;;;17.60;99.90;;;;;;4957473;28;20046;-61
2023/08/05 01:05:43;;;;;;;54.53;49.50;;;17.70;99.90;;;;;;4972283;28;20057;-62
2023/08/05 01:08:11;;;;;;;54.33;48.75;;;17.70;99.90;;;;;;4967497;28;20130;-60
2023/08/05 01:10:36;;;;;;;54.55;49.65;;;17.90;99.90;;;;;;4960683;28;20069;-63
2023/08/05 01:13:02;;;;;;;52.03;47.28;;;17.90;99.90;;;;;;4965864;28;20055;-63
2023/08/05 01:15:27;;;;;;;54.58;49.60;;;17.80;99.90;;;;;;4965802;28;20499;-63
2023/08/05 01:17:55;;;;;;;55.38;50.53;;;17.80;99.90;;;;;;4968243;28;20102;-63
2023/08/05 01:20:27;;;;;;;55.55;50.10;;;17.90;99.90;;;;;;4964257;28;20607;-62
2023/08/05 01:22:54;;;;;;;54.47;49.63;;;18.10;99.90;;;;;;4967857;28;20042;-63
2023/08/05 01:25:32;;;;;;;55.75;50.53;;;18.20;99.90;;;;;;4966234;28;20045;-62
2023/08/05 01:28:00;;;;;;;56.05;50.90;;;18.20;99.90;;;;;;4966176;28;20066;-63
2023/08/05 01:30:27;;;;;;;57.20;51.63;;;18.10;99.90;;;;;;4961774;28;20043;-63
2023/08/05 01:32:53;;;;;;;58.75;53.20;;;18.20;99.90;;;;;;4968497;28;20493;-63
2023/08/05 01:35:21;;;;;;;54.10;49.10;;;18.10;99.90;;;;;;4959881;28;20050;-63
2023/08/05 01:37:47;;;;;;;54.55;49.17;;;18.30;99.90;;;;;;4968258;28;20484;-63
2023/08/05 01:40:13;;;;;;;54.53;49.63;;;18.20;99.90;;;;;;4964240;28;20047;-63
2023/08/05 01:42:38;;;;;;;53.65;48.38;;;18.20;99.90;;;;;;4964467;28;20035;-63
2023/08/05 01:45:05;;;;;;;53.60;48.65;;;18.20;99.90;;;;;;4964628;28;20089;-63
2023/08/05 01:47:30;;;;;;;55.60;50.28;;;18.20;99.90;;;;;;4963192;28;20047;-63
2023/08/05 01:49:56;;;;;;;51.72;46.97;;;18.40;99.90;;;;;;4961522;28;20046;-63
2023/08/05 01:52:21;;;;;;;53.05;48.13;;;18.40;99.90;;;;;;4967113;28;20043;-63
2023/08/05 01:54:47;;;;;;;52.30;47.58;;;18.30;99.90;;;;;;4962697;28;20047;-64
2023/08/05 01:57:12;;;;;;;51.97;47.00;;;18.40;99.90;;;;;;4971600;28;20117;-64
2023/08/05 01:59:38;;;;;;;51.53;46.45;;;18.30;99.90;;;;;;4969358;28;20421;-63
2023/08/05 02:02:04;;;;;;;52.38;47.67;;;18.40;99.90;;;;;;4970911;28;20039;-64
2023/08/05 02:04:29;;;;;;;51.15;46.40;;;18.30;99.90;;;;;;4964048;28;20347;-63
2023/08/05 02:06:55;;;;;;;51.55;46.78;;;18.50;99.90;;;;;;4968940;28;20037;-63
2023/08/05 02:09:20;;;;;;;51.75;46.90;;;18.50;99.90;;;;;;4982613;28;20057;-63
2023/08/05 02:11:46;;;;;;;49.90;45.40;;;18.30;99.90;;;;;;4968513;28;20054;-63
2023/08/05 02:14:12;;;;;;;50.53;45.97;;;18.50;99.90;;;;;;4966843;28;20128;-63
2023/08/05 02:16:37;;;;;;;50.55;46.03;;;18.40;99.90;;;;;;4967628;28;20527;-63
2023/08/05 02:19:03;;;;;;;50.50;45.97;;;18.60;99.90;;;;;;4962899;28;20042;-63
2023/08/05 02:21:29;;;;;;;51.28;46.33;;;18.50;99.90;;;;;;4967886;28;20023;-65
2023/08/05 02:23:55;;;;;;;49.58;44.75;;;18.60;99.90;;;;;;4964020;28;20448;-65
2023/08/05 02:26:20;;;;;;;50.58;45.97;;;18.60;99.90;;;;;;4968812;28;20081;-64
2023/08/05 02:28:46;;;;;;;49.45;44.95;;;18.40;99.90;;;;;;4961779;28;20035;-65
2023/08/05 02:31:15;;;;;;;49.40;44.70;;;18.50;99.90;;;;;;4970504;28;20131;-65
2023/08/05 02:33:41;;;;;;;49.80;44.80;;;18.60;99.90;;;;;;4964767;28;20043;-65
2023/08/05 02:36:07;;;;;;;49.40;44.33;;;18.60;99.90;;;;;;4966150;28;20527;-64
2023/08/05 02:38:32;;;;;;;50.83;46.10;;;18.70;99.90;;;;;;4961088;28;20054;-65
2023/08/05 02:40:58;;;;;;;49.47;44.95;;;18.50;99.90;;;;;;4963919;28;20042;-65
2023/08/05 02:43:25;;;;;;;49.65;44.88;;;18.50;99.90;;;;;;4966270;28;20031;-64
2023/08/05 02:45:54;;;;;;;50.38;45.08;;;18.50;99.90;;;;;;4959628;28;20039;-65
2023/08/05 02:48:24;;;;;;;49.60;44.92;;;18.70;99.90;;;;;;4967675;28;20046;-64
2023/08/05 02:50:51;;;;;;;49.72;45.13;;;18.70;99.90;;;;;;4963138;28;20046;-64
2023/08/05 02:53:17;;;;;;;49.22;44.90;;;18.60;99.90;;;;;;4963893;28;20047;-64
2023/08/05 02:55:42;;;;;;;49.88;45.25;;;18.60;99.90;;;;;;4966802;28;20042;-64
2023/08/05 02:58:08;;;;;;;48.65;44.15;;;18.80;99.90;;;;;;4966872;28;20088;-65
2023/08/05 03:00:33;;;;;;;48.13;43.70;;;18.60;99.90;;;;;;4962468;28;20035;-65
2023/08/05 03:02:59;;;;;;;49.75;44.92;;;18.70;99.90;;;;;;4968205;28;20043;-64
2023/08/05 03:05:25;;;;;;;49.95;44.95;;;18.80;99.90;;;;;;4966742;28;20046;-64
2023/08/05 03:07:50;;;;;;;48.50;43.78;;;18.80;99.90;;;;;;4963308;28;20130;-64
2023/08/05 03:10:16;;;;;;;48.88;44.38;;;19.50;99.90;;;;;;4962700;28;20057;-64
2023/08/05 03:12:41;;;;;;;48.83;44.03;;;18.60;99.90;;;;;;4959402;28;20047;-65
2023/08/05 03:15:07;;;;;;;50.40;45.30;;;18.70;99.90;;;;;;4968804;28;20051;-64
2023/08/05 03:17:34;;;;;;;49.90;45.35;;;18.70;99.90;;;;;;4957292;28;20043;-65
2023/08/05 03:20:05;;;;;;;47.50;43.10;;;18.80;99.90;;;;;;4964584;28;20043;-65
2023/08/05 03:22:31;;;;;;;47.50;42.55;;;18.70;99.90;;;;;;4965459;28;20039;-65
2023/08/05 03:24:57;;;;;;;47.47;42.65;;;18.80;99.90;;;;;;4969783;28;20038;-65
2023/08/05 03:27:22;;;;;;;46.70;42.33;;;18.70;99.90;;;;;;4961597;28;20039;-65
2023/08/05 03:29:48;;;;;;;47.15;42.65;;;18.70;99.90;;;;;;4974124;28;20517;-65
2023/08/05 03:32:13;;;;;;;47.50;43.10;;;18.70;99.90;;;;;;4963144;28;20051;-64
2023/08/05 03:34:39;;;;;;;48.95;44.47;;;18.80;99.90;;;;;;4957943;28;20058;-62
2023/08/05 03:37:05;;;;;;;48.35;43.85;;;19.20;99.90;;;;;;4956567;28;20055;-63
2023/08/05 03:39:30;;;;;;;48.72;43.83;;;18.70;99.90;;;;;;4962666;28;20048;-63
2023/08/05 03:41:56;;;;;;;48.13;43.63;;;18.70;99.90;;;;;;4962397;28;20095;-63
2023/08/05 03:44:21;;;;;;;48.28;43.78;;;18.60;99.90;;;;;;4960097;28;20493;-62
2023/08/05 03:46:47;;;;;;;48.30;43.55;;;18.60;99.90;;;;;;4966528;28;20039;-62
2023/08/05 03:49:13;;;;;;;47.50;43.25;;;18.80;99.90;;;;;;4964249;28;20046;-63
2023/08/05 03:51:38;;;;;;;48.25;43.55;;;18.60;99.90;;;;;;4960313;28;20497;-63
2023/08/05 03:54:04;;;;;;;49.40;44.90;;;18.80;99.90;;;;;;4962148;28;20039;-62
2023/08/05 03:56:30;;;;;;;50.00;44.97;;;18.80;99.90;;;;;;4962091;28;20039;-62
2023/08/05 03:58:56;;;;;;;50.33;45.63;;;18.90;99.90;;;;;;4965615;28;20108;-62
2023/08/05 04:01:22;;;;;;;52.03;46.78;;;18.60;99.90;;;;;;4960678;28;20402;-62
2023/08/05 04:03:51;;;;;;;49.80;44.83;;;18.70;99.90;;;;;;4964187;28;20109;-63
2023/08/05 04:06:19;;;;;;;50.42;45.38;;;18.70;99.90;;;;;;4962024;28;20046;-62
2023/08/05 04:08:45;;;;;;;51.97;46.65;;;18.50;99.90;;;;;;4962859;28;20042;-62
2023/08/05 04:11:10;;;;;;;50.47;45.72;;;18.70;99.90;;;;;;4965065;28;20038;-62
2023/08/05 04:13:39;;;;;;;50.35;45.55;;;18.60;99.90;;;;;;4964133;28;20047;-62
2023/08/05 04:16:06;;;;;;;48.03;43.63;;;18.50;99.90;;;;;;4968709;28;20074;-63
2023/08/05 04:18:35;;;;;;;50.03;45.28;;;18.60;99.90;;;;;;4961207;28;20572;-63
2023/08/05 04:21:03;;;;;;;49.58;45.10;;;18.50;99.90;;;;;;4963780;28;20054;-62
2023/08/05 04:23:31;;;;;;;51.08;46.25;;;18.70;99.90;;;;;;4973297;28;20039;-63
2023/08/05 04:25:58;;;;;;;50.65;45.55;;;18.40;99.90;;;;;;4966724;28;20047;-62
2023/08/05 04:28:23;;;;;;;50.67;45.72;;;18.40;99.90;;;;;;4965464;28;20054;-63
2023/08/05 04:30:49;;;;;;;49.45;44.85;;;18.30;99.90;;;;;;4968147;28;20038;-62
2023/08/05 04:33:14;;;;;;;52.22;47.22;;;18.50;99.90;;;;;;4968502;28;20046;-62
2023/08/05 04:35:49;;;;;;;50.83;46.00;;;18.40;99.90;;;;;;4962191;28;20042;-63
2023/08/05 04:38:16;;;;;;;49.58;44.88;;;18.40;99.90;;;;;;4969178;28;20437;-62
2023/08/05 04:40:41;;;;;;;51.40;46.38;;;18.40;99.90;;;;;;4964261;28;20520;-63
2023/08/05 04:43:07;;;;;;;52.28;47.05;;;18.50;99.90;;;;;;4966608;28;20043;-62
2023/08/05 04:45:34;;;;;;;50.75;46.05;;;18.60;99.90;;;;;;4968351;28;20039;-63
2023/08/05 04:47:59;;;;;;;49.92;45.00;;;18.50;99.90;;;;;;4965194;28;20051;-62
2023/08/05 04:50:25;;;;;;;50.33;45.80;;;18.60;99.90;;;;;;4971063;28;20074;-63
2023/08/05 04:52:50;;;;;;;50.67;46.20;;;18.60;99.90;;;;;;4968140;28;20384;-62
2023/08/05 04:55:16;;;;;;;49.83;45.45;;;18.40;99.90;;;;;;4964644;28;20126;-63
2023/08/05 04:57:42;;;;;;;50.75;46.13;;;18.70;99.90;;;;;;4980821;28;20043;-62
2023/08/05 05:00:08;;;;;;;50.20;45.75;;;18.60;99.90;;;;;;4961784;28;20517;-63
2023/08/05 05:02:34;;;;;;;49.45;44.92;;;18.70;99.90;;;;;;4964361;28;20070;-63
2023/08/05 05:05:01;;;;;;;49.17;44.65;;;18.40;99.90;;;;;;4960854;28;20122;-62
2023/08/05 05:07:26;;;;;;;48.65;44.25;;;18.40;99.90;;;;;;4968175;28;20031;-63
2023/08/05 05:09:52;;;;;;;51.22;46.70;;;18.70;99.90;;;;;;4964120;28;20495;-63
2023/08/05 05:12:17;;;;;;;50.92;46.05;;;18.70;99.90;;;;;;4961568;28;20089;-63
2023/08/05 05:14:46;;;;;;;50.63;46.13;;;18.40;99.90;;;;;;4967272;28;20038;-63
2023/08/05 05:17:16;;;;;;;50.97;46.25;;;18.50;99.90;;;;;;4962186;28;20054;-63
2023/08/05 05:19:42;;;;;;;51.40;46.90;;;18.50;99.90;;;;;;4964840;28;20117;-63
2023/08/05 05:22:08;;;;;;;50.65;46.33;;;18.60;99.90;;;;;;4963005;28;20421;-63
2023/08/05 05:24:34;;;;;;;50.47;45.80;;;18.70;99.90;;;;;;4970108;28;20035;-63
2023/08/05 05:26:59;;;;;;;50.45;45.95;;;18.70;99.90;;;;;;4966709;28;20041;-63
2023/08/05 05:29:25;;;;;;;50.63;46.22;;;18.70;99.90;;;;;;4968047;28;20057;-62
2023/08/05 05:31:50;;;;;;;50.45;45.67;;;18.80;99.90;;;;;;4964657;28;20036;-63
2023/08/05 05:34:16;;;;;;;50.47;45.97;;;19.00;99.90;;;;;;4967551;28;20046;-62
2023/08/05 05:36:41;;;;;;;51.13;46.45;;;18.80;99.90;;;;;;4965956;28;20043;-62
2023/08/05 05:39:07;;;;;;;50.53;45.83;;;18.90;99.90;;;;;;4968292;28;20118;-63
2023/08/05 05:41:33;;;;;;;50.45;45.47;;;19.00;99.90;;;;;;4963906;28;20038;-63
2023/08/05 05:43:59;;;;;;;50.22;45.55;;;19.20;99.90;;;;;;4964760;28;20043;-63
2023/08/05 05:46:25;;;;;;;49.47;45.05;;;19.10;99.90;;;;;;4978810;28;20126;-63
2023/08/05 05:48:51;;;;;;;48.67;44.03;;;19.30;99.90;;;;;;4981966;28;20070;-62
2023/08/05 05:51:16;;;;;;;48.45;43.85;;;19.10;99.90;;;;;;4965665;28;20535;-62
2023/08/05 05:53:42;;;;;;;48.47;44.30;;;19.50;99.90;;;;;;4969494;28;20038;-63
2023/08/05 05:56:08;;;;;;;49.85;45.15;;;19.30;99.90;;;;;;4966153;28;20067;-62
2023/08/05 05:58:35;;;;;;;46.25;42.00;;;19.60;99.90;;;;;;4971297;28;20080;-63
2023/08/05 06:01:01;;;;;;;46.20;41.65;;;19.40;99.90;;;;;;4963367;28;20050;-63
2023/08/05 06:03:27;;;;;;;44.60;40.50;;;19.40;99.90;;;;;;4968320;28;20040;-63
2023/08/05 06:05:53;;;;;;;44.13;40.03;;;19.50;99.90;;;;;;4963924;28;20057;-63
2023/08/05 06:08:18;;;;;;;44.35;40.38;;;19.50;99.90;;;;;;4961770;28;20055;-63
2023/08/05 06:10:45;;;;;;;43.95;40.15;;;19.50;99.90;;;;;;4964199;28;20035;-63
2023/08/05 06:13:10;;;;;;;44.30;40.13;;;19.40;99.90;;;;;;4965358;28;20138;-63
2023/08/05 06:15:41;;;;;;;43.25;39.45;;;19.60;99.90;;;;;;4965134;28;20190;-62
2023/08/05 06:18:08;;;;;;;44.50;40.58;;;19.60;99.90;;;;;;4966723;28;20115;-62
2023/08/05 06:20:34;;;;;;;43.33;39.53;;;19.60;99.90;;;;;;4966999;28;20066;-63
2023/08/05 06:22:59;;;;;;;44.25;40.00;;;19.60;99.90;;;;;;4966169;28;20065;-62
2023/08/05 06:25:25;;;;;;;45.05;40.95;;;19.60;99.90;;;;;;4964109;28;20046;-63
2023/08/05 06:27:50;;;;;;;42.95;39.10;;;19.60;99.90;;;;;;4962176;28;20070;-63
2023/08/05 06:30:16;;;;;;;45.95;41.55;;;19.70;99.90;;;;;;4961368;28;20045;-63
2023/08/05 06:32:42;;;;;;;44.90;40.92;;;19.80;99.90;;;;;;4962206;28;20039;-62
2023/08/05 06:35:08;;;;;;;44.08;40.00;;;19.80;99.90;;;;;;4966553;28;20429;-63
2023/08/05 06:37:33;;;;;;;42.28;38.47;;;20.00;99.90;;;;;;4965313;28;20050;-63
2023/08/05 06:39:59;;;;;;;43.83;39.78;;;19.90;99.90;;;;;;4966187;28;20047;-63
2023/08/05 06:42:25;;;;;;;44.72;40.53;;;19.90;99.90;;;;;;4969055;28;20484;-62
2023/08/05 06:44:51;;;;;;;42.13;38.00;;;20.10;99.90;;;;;;4964392;28;20057;-62
2023/08/05 06:47:17;;;;;;;42.92;38.90;;;20.00;99.90;;;;;;4970029;28;20050;-62
2023/08/05 06:49:43;;;;;;;41.88;38.17;;;20.20;99.90;;;;;;4961476;28;20129;-63
2023/08/05 06:52:08;;;;;;;41.55;37.58;;;20.30;99.90;;;;;;4963366;28;20737;-63
2023/08/05 06:54:34;;;;;;;41.08;37.15;;;20.10;99.90;;;;;;4963881;28;20393;-63
2023/08/05 06:56:59;;;;;;;41.05;37.30;;;20.30;99.90;;;;;;4964760;28;20054;-63
2023/08/05 06:59:26;;;;;;;39.28;35.88;;;20.30;99.90;;;;;;4967804;28;20516;-63
2023/08/05 07:01:52;;;;;;;41.97;38.13;;;20.30;99.90;;;;;;4966858;28;20189;-65
2023/08/05 07:04:18;;;;;;;38.22;34.80;;;20.30;99.90;;;;;;4972417;28;20046;-65
2023/08/05 07:06:44;;;;;;;42.60;38.50;;;20.30;99.90;;;;;;4963277;28;20046;-65
2023/08/05 07:09:10;;;;;;;41.33;37.42;;;20.40;99.90;;;;;;4967549;28;20046;-65
2023/08/05 07:11:35;;;;;;;42.47;38.28;;;20.40;99.90;;;;;;4961308;28;20039;-65
2023/08/05 07:14:01;;;;;;;43.55;39.42;;;20.50;99.90;;;;;;4962514;28;20061;-65
2023/08/05 07:16:27;;;;;;;41.80;37.92;;;20.60;99.90;;;;;;4964323;28;20106;-66
2023/08/05 07:18:53;;;;;;;40.50;36.88;;;20.50;99.90;;;;;;4967729;28;20046;-65
2023/08/05 07:21:19;;;;;;;41.13;37.47;;;20.60;99.90;;;;;;4964245;28;20098;-65
2023/08/05 07:23:44;;;;;;;40.47;36.72;;;20.60;99.90;;;;;;4966054;28;20038;-65
2023/08/05 07:26:10;;;;;;;40.50;36.72;;;20.60;99.90;;;;;;4964963;28;20042;-65
2023/08/05 07:28:35;;;;;;;40.78;36.88;;;20.60;99.90;;;;;;4963525;28;20138;-65
2023/08/05 07:31:05;;;;;;;42.28;38.28;;;20.60;99.90;;;;;;4960366;28;20050;-65
2023/08/05 07:33:31;;;;;;;40.97;37.00;;;20.60;99.90;;;;;;4966496;28;20081;-64
2023/08/05 07:35:57;;;;;;;42.22;38.22;;;20.60;99.90;;;;;;4962442;28;20074;-65
2023/08/05 07:38:25;;;;;;;42.40;38.55;;;20.70;99.90;;;;;;4962860;28;20114;-65
2023/08/05 07:40:55;;;;;;;43.38;38.97;;;20.60;99.90;;;;;;4965420;28;20112;-65
2023/08/05 07:43:24;;;;;;;38.72;35.20;;;20.80;99.90;;;;;;4967865;28;20050;-65
2023/08/05 07:45:52;;;;;;;42.42;38.47;;;20.80;99.90;;;;;;4967367;28;20170;-65
2023/08/05 07:48:18;;;;;;;41.85;37.97;;;20.70;99.90;;;;;;4969039;28;20049;-65
2023/08/05 07:50:43;;;;;;;39.22;35.75;;;20.70;99.90;;;;;;4969171;28;20161;-68
2023/08/05 07:53:09;;;;;;;40.08;36.38;;;20.70;99.90;;;;;;4967636;28;20397;-65
2023/08/05 07:55:37;;;;;;;43.47;39.58;;;20.80;99.90;;;;;;4968510;28;20035;-65
2023/08/05 07:58:04;;;;;;;42.13;38.17;;;20.90;99.90;;;;;;4967943;28;20497;-65
2023/08/05 08:00:30;;;;;;;38.63;35.15;;;20.90;99.90;;;;;;4966164;28;20464;-64
2023/08/05 08:02:56;;;;;;;37.00;33.33;;;20.90;99.90;;;;;;4966393;28;20042;-64
2023/08/05 08:05:22;;;;;;;38.95;35.03;;;20.90;99.90;;;;;;4983851;28;20035;-66
2023/08/05 08:07:47;;;;;;;37.38;33.80;;;20.90;99.90;;;;;;4966510;28;20042;-65
2023/08/05 08:10:14;;;;;;;37.55;34.00;;;21.00;99.90;;;;;;4965708;28;20705;-65
2023/08/05 08:12:39;;;;;;;39.10;35.20;;;21.00;46.10;;;;;;4968073;28;20082;-63
2023/08/05 08:15:05;;;;;;;34.88;31.60;;;21.10;1.00;;;;;;4967272;28;20505;-63
2023/08/05 08:17:31;;;;;;;35.97;32.63;;;21.10;1.00;;;;;;4963636;28;20043;-63
2023/08/05 08:19:56;;;;;;;35.63;32.22;;;21.00;99.90;;;;;;4965836;28;20043;-63
2023/08/05 08:22:22;;;;;;;36.95;33.58;;;21.00;1.00;;;;;;4965591;28;20552;-62
2023/08/05 08:24:48;;;;;;;38.00;34.38;;;21.10;99.90;;;;;;4965920;28;21552;-64
2023/08/05 08:27:13;;;;;;;35.35;32.20;;;21.10;99.90;;;;;;4967514;28;20027;-63
2023/08/05 08:29:39;;;;;;;33.83;30.92;;;21.20;99.90;;;;;;4966233;28;20039;-64
2023/08/05 08:32:05;;;;;;;34.00;31.33;;;21.30;89.90;;;;;;4965228;28;20042;-64
2023/08/05 08:34:30;;;;;;;31.20;28.60;;;21.20;1.00;;;;;;4969370;28;20039;-64
2023/08/05 08:36:56;;;;;;;33.83;31.10;;;21.30;99.90;;;;;;4968092;28;20062;-65
2023/08/05 08:39:22;;;;;;;35.40;32.42;;;21.50;99.90;;;;;;4962449;28;20054;-64
2023/08/05 08:41:50;;;;;;;30.33;28.02;;;21.60;99.90;;;;;;4964975;28;20457;-65
2023/08/05 08:44:17;;;;;;;28.77;26.17;;;21.70;1.00;;;;;;4966339;28;20039;-64
2023/08/05 08:46:44;;;;;;;28.52;25.98;;;21.90;99.90;;;;;;4963186;28;20034;-64
2023/08/05 08:49:13;;;;;;;27.50;25.13;;;22.30;1.00;;;;;;4966505;28;20043;-64
2023/08/05 08:51:40;;;;;;;27.02;24.92;;;21.90;99.90;;;;;;4962066;28;20098;-65
2023/08/05 08:54:06;;;;;;;26.08;23.77;;;22.40;15.40;;;;;;4965937;28;20122;-64
2023/08/05 08:56:32;;;;;;;27.40;25.08;;;22.10;99.90;;;;;;4968039;28;20046;-64
2023/08/05 08:58:58;;;;;;;29.65;26.98;;;22.00;1.00;;;;;;4964707;28;20304;-65
2023/08/05 09:01:26;;;;;;;28.02;25.65;;;22.20;99.90;;;;;;4962153;28;20127;-64
2023/08/05 09:03:52;;;;;;;25.42;23.33;;;22.20;83.50;;;;;;4964530;28;20121;-65
2023/08/05 09:06:23;;;;;;;25.92;23.63;;;22.60;99.90;;;;;;4964221;28;20055;-64
2023/08/05 09:08:50;;;;;;;29.95;27.33;;;22.10;99.90;;;;;;4963655;28;20087;-64
2023/08/05 09:11:16;;;;;;;27.58;25.30;;;22.00;36.50;;;;;;4963615;28;20470;-64
2023/08/05 09:13:42;;;;;;;26.27;24.17;;;21.90;1.00;;;;;;4968081;28;20393;-64
2023/08/05 09:16:13;;;;;;;28.92;26.60;;;21.80;99.90;;;;;;4964940;28;20071;-64
2023/08/05 09:18:55;;;;;;;30.92;28.38;;;21.80;99.90;;;;;;4966496;28;20065;-64
2023/08/05 09:21:22;;;;;;;31.00;28.50;;;21.60;99.90;;;;;;4963932;28;20143;-62
2023/08/05 09:23:48;;;;;;;29.27;26.98;;;21.60;99.90;;;;;;4963773;28;20028;-62
2023/08/05 09:26:13;;;;;;;31.70;29.00;;;21.70;99.90;;;;;;4963015;28;20035;-61
2023/08/05 09:28:39;;;;;;;30.98;28.23;;;21.70;1.00;;;;;;4965057;28;20401;-62
2023/08/05 09:31:16;;;;;;;29.92;27.25;;;21.60;99.90;;;;;;4966786;28;20070;-62
2023/08/05 09:33:42;;;;;;;28.77;26.45;;;21.70;99.90;;;;;;4964459;28;20062;-62
2023/08/05 09:36:10;;;;;;;30.90;28.10;;;21.80;99.90;;;;;;4965141;28;20053;-62
2023/08/05 09:38:38;;;;;;;31.45;28.38;;;21.80;99.90;;;;;;4963432;28;20117;-62
2023/08/05 09:41:04;;;;;;;26.27;23.98;;;22.30;99.90;;;;;;4969346;28;20078;-62
2023/08/05 09:43:35;;;;;;;25.02;22.58;;;22.20;99.90;;;;;;4963487;28;20038;-62
2023/08/05 09:46:06;;;;;;;25.35;23.08;;;22.60;99.90;;;;;;4965019;28;20564;-62
2023/08/05 09:48:42;;;;;;;22.35;20.30;;;23.20;99.90;;;;;;4964916;28;20495;-62
2023/08/05 09:51:08;;;;;;;24.30;22.20;;;23.70;99.90;;;;;;4964441;28;20775;-62
2023/08/05 09:53:37;;;;;;;20.10;18.50;;;24.10;1.00;;;;;;4965369;28;20043;-63
2023/08/05 09:56:06;;;;;;;19.15;17.55;;;24.40;1.00;;;;;;4963507;28;20049;-63
2023/08/05 09:58:35;;;;;;;21.50;19.70;;;24.20;99.90;;;;;;4962612;28;20091;-63
2023/08/05 10:01:06;;;;;;;24.40;22.23;;;24.30;1.00;;;;;;4966902;28;20038;-62
2023/08/05 10:03:39;;;;;;;25.92;23.65;;;24.10;1.00;;;;;;4964007;28;20034;-61
2023/08/05 10:06:08;;;;;;;25.77;23.60;;;23.90;1.00;;;;;;4967746;28;20492;-63
2023/08/05 10:08:39;;;;;;;24.17;21.98;;;23.70;99.90;;;;;;4963877;28;20134;-61
2023/08/05 10:11:06;;;;;;;26.38;24.08;;;23.70;99.90;;;;;;4965698;28;20038;-61
2023/08/05 10:13:37;;;;;;;24.90;22.65;;;23.50;99.90;;;;;;4963539;28;20082;-64
2023/08/05 10:16:04;;;;;;;20.23;18.48;;;23.40;99.90;;;;;;4966665;28;20074;-61
2023/08/05 10:18:33;;;;;;;19.73;18.08;;;23.70;99.90;;;;;;4964248;28;20039;-61
2023/08/05 10:21:03;;;;;;;22.15;20.30;;;23.70;99.90;;;;;;4964008;28;20046;-61
2023/08/05 10:23:33;;;;;;;25.38;23.27;;;23.60;99.90;;;;;;4960987;28;20413;-60
2023/08/05 10:26:04;;;;;;;24.83;22.75;;;23.40;99.90;;;;;;4964087;28;20046;-61
2023/08/05 10:28:35;;;;;;;24.08;22.05;;;23.30;99.90;;;;;;4964524;28;20159;-61
2023/08/05 10:31:23;;;;;;;24.50;22.55;;;23.20;99.70;;;;;;4966431;28;20058;-62
2023/08/05 10:34:09;;;;;;;23.92;21.65;;;23.30;98.70;;;;;;4960128;28;20046;-61
2023/08/05 10:36:43;;;;;;;23.65;21.83;;;23.40;95.30;;;;;;4961613;28;20030;-61
2023/08/05 10:39:40;;;;;;;22.95;21.25;;;23.20;93.30;;;;;;4972160;28;20058;-62
2023/08/05 10:42:28;;;;;;;23.73;21.92;;;23.00;54.10;;;;;;4963619;28;20493;-62
2023/08/05 10:44:54;;;;;;;19.45;17.90;;;22.90;69.40;;;;;;4965880;28;20122;-61
2023/08/05 10:47:24;;;;;;;22.13;20.45;;;22.80;73.30;;;;;;4968431;28;20043;-61
2023/08/05 10:49:57;;;;;;;22.65;20.90;;;22.80;45.40;;;;;;4964209;28;20488;-61
2023/08/05 10:52:23;;;;;;;23.08;21.17;;;22.80;48.00;;;;;;4964227;28;20047;-61
2023/08/05 10:54:50;;;;;;;23.50;21.50;;;22.90;73.30;;;;;;4960366;28;20062;-63
2023/08/05 10:57:33;;;;;;;22.73;20.92;;;22.90;88.10;;;;;;4963941;28;20046;-61
2023/08/05 11:00:00;;;;;;;24.50;22.40;;;22.90;85.60;;;;;;4964418;28;20093;-62
2023/08/05 11:02:26;;;;;;;19.70;18.10;;;23.00;97.20;;;;;;4963258;28;20050;-61
2023/08/05 11:05:06;;;;;;;21.08;19.42;;;23.10;90.50;;;;;;4965270;28;20043;-62
2023/08/05 11:07:42;;;;;;;22.35;20.55;;;23.10;64.40;;;;;;4961940;28;20510;-65
2023/08/05 11:10:09;;;;;;;22.30;20.60;;;23.10;66.10;;;;;;4963104;28;20054;-66
2023/08/05 11:12:38;;;;;;;23.90;21.73;;;23.10;68.40;;;;;;4965101;28;20145;-65
2023/08/05 11:15:04;;;;;;;25.80;23.60;;;23.10;49.70;;;;;;4963767;28;20049;-66
2023/08/05 11:17:30;;;;;;;24.77;22.80;;;23.10;56.70;;;;;;4962785;28;20236;-65
2023/08/05 11:19:57;;;;;;;24.33;22.15;;;23.10;56.50;;;;;;4964318;28;20035;-65
2023/08/05 11:22:28;;;;;;;24.60;22.50;;;23.00;57.30;;;;;;4960240;28;20088;-61
2023/08/05 11:25:00;;;;;;;24.25;22.33;;;22.90;42.70;;;;;;4959091;28;20059;-61
2023/08/05 11:27:34;;;;;;;23.52;21.48;;;22.80;37.70;;;;;;4963773;28;20532;-61
2023/08/05 11:30:11;;;;;;;23.08;21.13;;;22.80;25.70;;;;;;4966411;28;20048;-61
2023/08/05 11:32:57;;;;;;;25.50;23.58;;;22.70;16.30;;;;;;4964202;28;20035;-61
2023/08/05 11:35:23;;;;;;;25.05;22.92;;;22.70;19.30;;;;;;4965406;28;20610;-61
2023/08/05 11:37:49;;;;;;;26.02;23.83;;;22.70;33.30;;;;;;4964479;28;20425;-60
2023/08/05 11:40:15;;;;;;;27.00;24.77;;;22.70;46.70;;;;;;4967372;28;20042;-60
2023/08/05 11:42:40;;;;;;;22.13;20.30;;;22.70;61.50;;;;;;4979461;28;20088;-61
2023/08/05 11:45:13;;;;;;;24.45;22.55;;;22.70;60.90;;;;;;4965786;28;20158;-60
2023/08/05 11:47:40;;;;;;;25.95;23.90;;;22.70;39.60;;;;;;4960013;28;20043;-60
2023/08/05 11:50:07;;;;;;;27.23;24.90;;;22.60;54.00;;;;;;4967408;28;20054;-63
2023/08/05 11:52:33;;;;;;;26.33;24.13;;;22.60;56.10;;;;;;4962669;28;20051;-60
2023/08/05 11:55:00;;;;;;;27.75;25.30;;;22.70;80.70;;;;;;4964143;28;20113;-61
2023/08/05 11:57:26;;;;;;;26.13;23.88;;;22.70;79.70;;;;;;4960755;28;20059;-60
2023/08/05 11:59:55;;;;;;;27.23;25.00;;;22.60;69.00;;;;;;4962220;28;20118;-60
2023/08/05 12:02:22;;;;;;;27.73;25.42;;;22.50;80.30;;;;;;4963617;28;20050;-60
2023/08/05 12:04:48;;;;;;;27.70;25.15;;;22.50;93.90;;;;;;4963396;28;20042;-60
2023/08/05 12:07:16;;;;;;;26.33;24.13;;;22.50;91.50;;;;;;4965062;28;20106;-61
2023/08/05 12:09:42;;;;;;;26.80;24.50;;;22.40;91.00;;;;;;4964122;28;20485;-59
2023/08/05 12:12:16;;;;;;;26.58;24.38;;;22.40;91.20;;;;;;4963625;28;20090;-63
2023/08/05 12:14:42;;;;;;;28.90;26.40;;;22.30;79.50;;;;;;4963682;28;20035;-60
2023/08/05 12:17:07;;;;;;;28.52;26.00;;;22.50;92.20;;;;;;4961515;28;20058;-60
2023/08/05 12:19:33;;;;;;;29.02;26.63;;;22.20;99.90;;;;;;4961868;28;20038;-60
2023/08/05 12:21:59;;;;;;;32.70;29.70;;;22.20;99.90;;;;;;4964456;28;20043;-59
2023/08/05 12:24:24;;;;;;;28.35;26.05;;;22.20;99.90;;;;;;4959494;28;20042;-60
2023/08/05 12:26:50;;;;;;;29.25;26.75;;;22.20;99.90;;;;;;4967277;28;20409;-60